FW1035 Weather Reports


Display with metric or nautical units.
time (UTC)temp
F
wind
direction
speed
MPH
gust
MPH
rain 1hr
in
rain 24hr
in
rain mn
in
humidity
%
barometer
mb
20190222020135 43 159 0.0 1.0 0.00 0.02 0.01 66 962.0
20190222014707 43 159 0.0 1.0 0.00 0.02 0.01 70 961.8
20190222013146 44 159 0.0 1.0 0.00 0.02 0.01 66 961.6
20190222011707 45 159 0.0 1.0 0.00 0.02 0.01 57 961.4
20190222010125 47 116 0.0 4.0 0.00 0.02 0.01 51 961.1
20190222004628 48 188 0.0 3.0 0.00 0.03 0.01 60 961.0
20190222003131 49 145 0.0 2.0 0.00 0.03 0.01 58 960.9
20190222001647 50 113 0.0 6.0 0.00 0.03 0.01 57 960.9
20190222000145 50 161 4.0 10.0 0.00 0.03 0.01 46 960.6
20190221234608 50 215 1.0 6.0 0.00 0.03 0.01 58 960.7
20190221233153 50 101 1.0 4.0 0.00 0.03 0.01 56 960.7
20190221231643 48 132 0.0 3.0 0.00 0.03 0.01 59 960.7
20190221230156 49 126 0.0 3.0 0.00 0.03 0.01 57 960.6
20190221224813 49 173 0.0 3.0 0.00 0.03 0.01 57 960.6
20190221223125 50 47 1.0 4.0 0.00 0.03 0.01 60 960.7
20190221221702 47 141 1.0 4.0 0.01 0.03 0.01 68 960.8
20190221214641 46 66 0.0 3.0 0.01 0.03 0.01 70 960.5
20190221213141 46 67 1.0 5.0 0.01 0.03 0.01 65 960.3
20190221211624 47 77 1.0 5.0 0.00 0.02 0.00 57 960.1
20190221210150 48 76 1.0 6.0 0.00 0.02 0.00 54 960.0
20190221204601 51 24 0.0 4.0 0.00 0.02 0.00 51 960.0
20190221203145 50 190 1.0 8.0 0.00 0.02 0.00 51 960.0
20190221201631 52 176 3.0 7.0 0.00 0.02 0.00 44 960.0
20190221200120 52 226 1.0 7.0 0.00 0.02 0.00 42 960.1
20190221194623 52 155 4.0 10.0 0.00 0.02 0.00 46 960.2
20190221193105 50 165 1.0 5.0 0.00 0.02 0.00 51 960.5
20190221191617 50 234 1.0 4.0 0.00 0.02 0.00 52 960.8
20190221190049 51 180 1.0 7.0 0.00 0.02 0.00 52 960.8
20190221184600 49 178 2.0 5.0 0.00 0.02 0.00 52 960.9
20190221183049 49 160 1.0 5.0 0.00 0.02 0.00 53 960.9
20190221181610 48 215 1.0 3.0 0.00 0.02 0.00 53 961.0
20190221180039 47 51 0.0 2.0 0.00 0.02 0.00 56 961.1
20190221174611 46 144 1.0 3.0 0.00 0.02 0.00 57 961.1
20190221173044 46 146 0.0 2.0 0.00 0.02 0.00 60 961.1
20190221171537 45 158 0.0 3.0 0.00 0.02 0.00 68 961.2
20190221170041 44 105 0.0 1.0 0.00 0.02 0.00 66 961.2
20190221164516 44 87 1.0 3.0 0.00 0.02 0.00 64 961.0
20190221163030 41 32 0.0 2.0 0.00 0.02 0.00 72 961.1
20190221161502 40 18 0.0 2.0 0.00 0.02 0.00 74 960.8
20190221160141 40 18 0.0 3.0 0.00 0.02 0.00 76 961.1
20190221160003 40 18 0.0 3.0 0.00 0.02 0.00 76 961.0
20190221154705 39 24 0.0 0.0 0.00 0.02 0.00 78 960.9
20190221153159 38 24 0.0 1.0 0.00 0.02 0.00 78 960.8
20190221151649 37 24 0.0 1.0 0.00 0.02 0.00 81 960.8
20190221150148 36 24 0.0 1.0 0.00 0.02 0.00 80 960.8
20190221144623 37 24 0.0 2.0 0.00 0.02 0.00 81 960.6
20190221143206 36 24 0.0 1.0 0.00 0.02 0.00 82 960.6
20190221141642 36 24 0.0 1.0 0.00 0.02 0.00 82 960.8
20190221140115 36 24 0.0 0.0 0.00 0.02 0.00 83 960.9
20190221134610 36 24 0.0 1.0 0.00 0.02 0.00 83 960.7
20190221133121 36 24 0.0 1.0 0.00 0.02 0.00 83 960.8
20190221131638 36 24 0.0 1.0 0.00 0.02 0.00 83 960.7
20190221130218 36 24 0.0 1.0 0.00 0.02 0.00 82 960.7
20190221124545 36 24 0.0 2.0 0.00 0.02 0.00 81 960.8
20190221123133 36 24 0.0 3.0 0.00 0.02 0.00 83 960.8
20190221121556 36 360 0.0 1.0 0.00 0.02 0.00 83 960.8
20190221120126 36 360 0.0 1.0 0.00 0.02 0.00 82 960.8
20190221113036 36 360 0.0 1.0 0.00 0.02 0.00 82 961.1
20190221111611 37 360 0.0 1.0 0.00 0.02 0.00 81 961.2
20190221110047 37 360 0.0 1.0 0.00 0.02 0.00 81 961.3
20190221104526 37 360 0.0 1.0 0.00 0.02 0.00 80 961.5
20190221103056 37 360 0.0 2.0 0.00 0.02 0.00 80 961.5
20190221101523 37 320 0.0 1.0 0.00 0.02 0.00 81 961.6
20190221100040 38 320 0.0 2.0 0.00 0.02 0.00 79 961.8
20190221094545 38 320 0.0 1.0 0.00 0.02 0.00 79 962.0
20190221093013 39 320 1.0 2.0 0.00 0.02 0.00 80 962.0
20190221091515 39 14 0.0 3.0 0.00 0.02 0.00 82 962.2
20190221090016 38 108 0.0 2.0 0.00 0.02 0.00 86 962.3
20190221084512 38 108 0.0 2.0 0.00 0.02 0.00 89 962.4
20190221083027 38 108 0.0 1.0 0.00 0.02 0.00 89 962.6
20190221081503 39 108 0.0 2.0 0.00 0.02 0.00 89 962.7
20190221080243 39 109 0.0 3.0 0.00 0.02 0.00 89 962.9
20190221074654 38 9 0.0 2.0 0.00 0.02 0.02 89 962.9
20190221073151 39 9 1.0 3.0 0.00 0.02 0.02 90 963.2
20190221071649 38 180 0.0 1.0 0.00 0.02 0.02 89 963.3
20190221070225 39 180 0.0 1.0 0.00 0.02 0.02 89 963.3
20190221064710 39 180 0.0 1.0 0.00 0.02 0.02 89 963.3
20190221063211 39 180 0.0 1.0 0.00 0.02 0.02 90 963.4
20190221061720 39 180 0.0 1.0 0.00 0.02 0.02 90 963.6
20190221060211 39 180 0.0 1.0 0.00 0.02 0.02 90 963.5
20190221054622 40 180 0.0 1.0 0.00 0.02 0.02 90 963.6
20190221053119 40 180 0.0 2.0 0.00 0.02 0.02 90 963.5
20190221051642 40 178 0.0 1.0 0.00 0.02 0.02 90 963.5
20190221050126 40 178 0.0 1.0 0.00 0.02 0.02 90 963.9
20190221044714 40 178 0.0 1.0 0.00 0.02 0.02 90 963.8
20190221043217 41 178 0.0 1.0 0.00 0.02 0.02 89 963.6
20190221041653 41 178 0.0 1.0 0.00 0.02 0.02 89 963.7
20190221040136 41 178 0.0 1.0 0.00 0.02 0.02 89 963.7
20190221034648 41 178 0.0 0.0 0.00 0.02 0.02 89 963.6
20190221033145 42 178 0.0 2.0 0.00 0.02 0.02 89 963.6
20190221031615 42 178 0.0 1.0 0.00 0.02 0.02 89 963.9
20190221030251 43 178 0.0 1.0 0.01 0.02 0.02 88 964.1
20190221024606 44 178 0.0 1.0 0.01 0.02 0.02 88 964.2
20190221023149 45 178 0.0 1.0 0.01 0.02 0.02 87 964.4
20190221021639 45 178 0.0 0.0 0.01 0.02 0.02 86 964.3